Dallas, Texas
Traffic Map
Current Weather Conditions
Dallas, Texas
Broken Clouds
Broken Clouds
32°
Feels Like: 32°
Wind Chill: 32° Ceiling: 30000
Heat Index: 32° Visibility: 10mi
Dew Point: 14° Wind: 10mph
Humidity: 33% Direction: 180° (S)
Pressure: 29.98in Gusts: 0mph
Raw Report DataKDAL 021553Z 18009KT 10SM FEW100 FEW140 FEW210 BKN300 32/14 A2998 RMK AO2 SLP144 T03220139
Traffic Incident Summary
Active as of:
Severity:
Category:
InformationThere was an issue retrieving the traffic information for this location. Please try a different location or try again shortly.
Advertisements
Track Severe Weather on mobile